Time;durP1;ratioP1;P1;durP2;ratioP2;P2;SDS_P1;SDS_P2;PMS_P1;PMS_P2;Temp;Humidity;BMP_temperature;BMP_pressure;BME280_temperature;BME280_humidity;BME280_pressure;Samples;Min_cycle;Max_cycle;Signal;HPM_P1;HPM_P2
2022/07/05 00:00:38;;;;;;;6.65;3.22;;;;;;;;;;5015111;28;20021;-73
2022/07/05 00:03:04;;;;;;;5.47;3.83;;;;;;;;;;5023720;28;20116;-74
2022/07/05 00:05:29;;;;;;;4.30;3.38;;;;;;;;;;5022333;28;20041;-73
2022/07/05 00:07:54;;;;;;;5.03;3.60;;;;;;;;;;5021649;28;20033;-74
2022/07/05 00:10:20;;;;;;;4.97;3.50;;;;;;;;;;5024307;28;20025;-74
2022/07/05 00:12:45;;;;;;;5.60;3.70;;;;;;;;;;5022237;28;20108;-74
2022/07/05 00:15:11;;;;;;;4.82;3.47;;;;;;;;;;5020676;28;20033;-73
2022/07/05 00:17:36;;;;;;;5.63;3.50;;;;;;;;;;5021554;28;20449;-74
2022/07/05 00:20:03;;;;;;;5.75;3.70;;;;;;;;;;5020624;28;20040;-74
2022/07/05 00:22:28;;;;;;;6.03;4.05;;;;;;;;;;5025107;28;20115;-73
2022/07/05 00:24:53;;;;;;;4.97;3.70;;;;;;;;;;5022665;28;20033;-73
2022/07/05 00:27:19;;;;;;;5.38;4.00;;;;;;;;;;5023172;28;20037;-74
2022/07/05 00:29:45;;;;;;;6.35;4.32;;;;;;;;;;5022927;28;20037;-73
2022/07/05 00:32:10;;;;;;;6.22;3.50;;;;;;;;;;5027704;28;20042;-73
2022/07/05 00:34:35;;;;;;;4.90;4.10;;;;;;;;;;5020843;28;20029;-74
2022/07/05 00:37:01;;;;;;;6.47;4.47;;;;;;;;;;5022716;28;20478;-74
2022/07/05 00:39:26;;;;;;;5.22;4.10;;;;;;;;;;5018237;28;20108;-73
2022/07/05 00:41:52;;;;;;;5.35;3.80;;;;;;;;;;5020541;28;20022;-73
2022/07/05 00:44:31;;;;;;;4.72;3.92;;;;;;;;;;5025432;28;20061;-74
2022/07/05 00:46:57;;;;;;;5.68;4.18;;;;;;;;;;5024800;28;20025;-74
2022/07/05 00:49:22;;;;;;;5.28;4.07;;;;;;;;;;5021408;28;20018;-73
2022/07/05 00:51:47;;;;;;;6.28;4.20;;;;;;;;;;5026681;28;20516;-73
2022/07/05 00:54:13;;;;;;;5.32;4.25;;;;;;;;;;5022109;28;20481;-73
2022/07/05 00:56:38;;;;;;;5.22;3.95;;;;;;;;;;5026418;28;20044;-74
2022/07/05 00:59:03;;;;;;;6.70;4.43;;;;;;;;;;5021813;28;20048;-74
2022/07/05 01:01:29;;;;;;;6.30;4.53;;;;;;;;;;5021588;28;20420;-73
2022/07/05 01:03:54;;;;;;;5.85;4.55;;;;;;;;;;5027267;28;20029;-74
2022/07/05 01:06:20;;;;;;;6.45;5.10;;;;;;;;;;5029597;28;20116;-73
2022/07/05 01:08:46;;;;;;;7.22;5.55;;;;;;;;;;5024212;28;20029;-73
2022/07/05 01:11:13;;;;;;;5.38;4.40;;;;;;;;;;5024761;28;20037;-73
2022/07/05 01:13:38;;;;;;;6.75;5.25;;;;;;;;;;5027439;28;20021;-73
2022/07/05 01:16:04;;;;;;;6.35;4.25;;;;;;;;;;5023698;28;20076;-74
2022/07/05 01:18:31;;;;;;;6.32;5.25;;;;;;;;;;5026727;28;20029;-73
2022/07/05 01:20:58;;;;;;;7.32;4.95;;;;;;;;;;5023018;28;20029;-73
2022/07/05 01:23:30;;;;;;;10.68;5.15;;;;;;;;;;5023657;28;20032;-73
2022/07/05 01:25:56;;;;;;;7.80;5.65;;;;;;;;;;5021256;28;20029;-73
2022/07/05 01:28:23;;;;;;;7.25;5.65;;;;;;;;;;5024455;28;20390;-73
2022/07/05 01:30:48;;;;;;;5.80;4.63;;;;;;;;;;5022531;28;20405;-73
2022/07/05 01:33:13;;;;;;;6.45;5.32;;;;;;;;;;5024267;28;20021;-73
2022/07/05 01:35:39;;;;;;;6.85;5.10;;;;;;;;;;5027022;28;20028;-73
2022/07/05 01:38:04;;;;;;;6.80;4.72;;;;;;;;;;5021348;28;20026;-73
2022/07/05 01:40:31;;;;;;;7.30;4.97;;;;;;;;;;5029294;28;20076;-74
2022/07/05 01:42:56;;;;;;;8.40;5.30;;;;;;;;;;5038596;28;20021;-74
2022/07/05 01:45:41;;;;;;;8.32;5.30;;;;;;;;;;5028116;28;20056;-74
2022/07/05 01:48:16;;;;;;;6.45;4.68;;;;;;;;;;5024377;28;20040;-73
2022/07/05 01:50:48;;;;;;;6.95;5.35;;;;;;;;;;5024473;28;20029;-74
2022/07/05 01:53:22;;;;;;;6.45;5.32;;;;;;;;;;5023336;28;20030;-73
2022/07/05 01:55:48;;;;;;;6.68;5.13;;;;;;;;;;5027553;28;20025;-74
2022/07/05 01:58:15;;;;;;;7.32;4.95;;;;;;;;;;5021516;28;20520;-74
2022/07/05 02:00:45;;;;;;;6.40;5.30;;;;;;;;;;5026777;28;20028;-73
2022/07/05 02:03:11;;;;;;;6.72;4.95;;;;;;;;;;5024279;28;20044;-74
2022/07/05 02:05:37;;;;;;;6.85;5.55;;;;;;;;;;5023064;28;20108;-74
2022/07/05 02:08:02;;;;;;;7.43;5.53;;;;;;;;;;5022281;28;20116;-74
2022/07/05 02:10:28;;;;;;;6.07;5.13;;;;;;;;;;5031174;28;20146;-74
2022/07/05 02:12:53;;;;;;;6.78;4.72;;;;;;;;;;5022417;28;20033;-74
2022/07/05 02:15:18;;;;;;;6.75;5.85;;;;;;;;;;5027435;28;20040;-73
2022/07/05 02:17:44;;;;;;;7.35;5.80;;;;;;;;;;5028239;28;20382;-74
2022/07/05 02:20:10;;;;;;;6.43;5.13;;;;;;;;;;5017255;28;20032;-74
2022/07/05 02:22:35;;;;;;;6.15;5.10;;;;;;;;;;5026879;28;20021;-74
2022/07/05 02:25:00;;;;;;;6.95;5.32;;;;;;;;;;5026675;28;20053;-73
2022/07/05 02:27:26;;;;;;;6.95;5.32;;;;;;;;;;5021809;28;20590;-74
2022/07/05 02:29:52;;;;;;;8.43;5.80;;;;;;;;;;5022853;28;20083;-74
2022/07/05 02:32:17;;;;;;;8.68;6.45;;;;;;;;;;5027049;28;20081;-74
2022/07/05 02:34:42;;;;;;;7.85;6.10;;;;;;;;;;5017222;28;20034;-74
2022/07/05 02:37:08;;;;;;;7.47;5.70;;;;;;;;;;5028441;28;20112;-74
2022/07/05 02:39:33;;;;;;;7.28;5.80;;;;;;;;;;5023700;28;20481;-73
2022/07/05 02:41:58;;;;;;;8.65;5.47;;;;;;;;;;5023009;28;20432;-74
2022/07/05 02:44:24;;;;;;;7.28;5.20;;;;;;;;;;5022801;28;20037;-73
2022/07/05 02:46:49;;;;;;;7.50;5.25;;;;;;;;;;5022943;28;20438;-74
2022/07/05 02:49:15;;;;;;;8.30;5.40;;;;;;;;;;5023716;28;20033;-73
2022/07/05 02:51:40;;;;;;;9.23;5.95;;;;;;;;;;5024070;28;20108;-73
2022/07/05 02:54:05;;;;;;;8.45;6.10;;;;;;;;;;5025188;28;20091;-73
2022/07/05 02:56:31;;;;;;;7.70;5.90;;;;;;;;;;5025055;28;20025;-73
2022/07/05 02:58:56;;;;;;;8.27;6.28;;;;;;;;;;5024566;28;20541;-74
2022/07/05 03:01:22;;;;;;;7.15;5.88;;;;;;;;;;5021929;28;20145;-73
2022/07/05 03:03:47;;;;;;;7.00;5.78;;;;;;;;;;5023894;28;20068;-73
2022/07/05 03:06:12;;;;;;;8.15;6.03;;;;;;;;;;5024896;28;20060;-74
2022/07/05 03:08:38;;;;;;;8.48;5.93;;;;;;;;;;5017512;28;20037;-74
2022/07/05 03:11:03;;;;;;;9.57;6.60;;;;;;;;;;5018039;28;20080;-74
2022/07/05 03:13:29;;;;;;;8.93;6.57;;;;;;;;;;5022450;28;20025;-73
2022/07/05 03:15:54;;;;;;;8.85;6.32;;;;;;;;;;5019390;28;20032;-73
2022/07/05 03:18:19;;;;;;;9.20;6.53;;;;;;;;;;5022543;28;20921;-73
2022/07/05 03:20:45;;;;;;;8.38;6.50;;;;;;;;;;5020625;28;20030;-74
2022/07/05 03:23:10;;;;;;;8.85;6.30;;;;;;;;;;5027232;28;20029;-74
2022/07/05 03:25:36;;;;;;;10.85;6.25;;;;;;;;;;5022065;28;20033;-74
2022/07/05 03:28:01;;;;;;;8.73;6.30;;;;;;;;;;5023757;28;20029;-74
2022/07/05 03:30:27;;;;;;;9.23;7.00;;;;;;;;;;5020992;28;20057;-74
2022/07/05 03:32:52;;;;;;;9.77;6.78;;;;;;;;;;5024404;28;20040;-73
2022/07/05 03:35:17;;;;;;;9.60;6.55;;;;;;;;;;5023602;28;20033;-73
2022/07/05 03:37:43;;;;;;;9.40;6.50;;;;;;;;;;5037160;28;20140;-74
2022/07/05 03:40:09;;;;;;;9.10;6.85;;;;;;;;;;5024241;28;20508;-74
2022/07/05 03:42:35;;;;;;;7.53;5.93;;;;;;;;;;5019292;28;20029;-74
2022/07/05 03:45:01;;;;;;;8.13;6.00;;;;;;;;;;5024096;28;20029;-74
2022/07/05 03:47:26;;;;;;;10.35;6.72;;;;;;;;;;5025914;28;20025;-74
2022/07/05 03:49:54;;;;;;;9.20;6.38;;;;;;;;;;5026590;28;20112;-73
2022/07/05 03:52:19;;;;;;;8.38;5.72;;;;;;;;;;5032279;28;20429;-74
2022/07/05 03:54:44;;;;;;;9.75;6.30;;;;;;;;;;5021976;28;20025;-74
2022/07/05 03:57:11;;;;;;;7.90;6.10;;;;;;;;;;5023666;28;20036;-74
2022/07/05 03:59:36;;;;;;;7.50;5.80;;;;;;;;;;5020195;28;20530;-74
2022/07/05 04:02:02;;;;;;;9.50;6.00;;;;;;;;;;5024038;28;20108;-74
2022/07/05 04:04:27;;;;;;;6.35;5.10;;;;;;;;;;5026776;28;20532;-74
2022/07/05 04:06:53;;;;;;;7.63;5.20;;;;;;;;;;5022320;28;20536;-73
2022/07/05 04:09:18;;;;;;;8.30;5.80;;;;;;;;;;5022416;28;20022;-74
2022/07/05 04:11:43;;;;;;;7.32;5.18;;;;;;;;;;5021270;28;20087;-73
2022/07/05 04:14:09;;;;;;;8.32;5.47;;;;;;;;;;5022476;28;20034;-74
2022/07/05 04:16:35;;;;;;;8.43;5.32;;;;;;;;;;5024525;28;20109;-73
2022/07/05 04:19:00;;;;;;;8.40;5.43;;;;;;;;;;5031781;28;20033;-73
2022/07/05 04:21:25;;;;;;;6.88;5.10;;;;;;;;;;5028049;28;20067;-74
2022/07/05 04:23:51;;;;;;;8.23;5.72;;;;;;;;;;5027288;28;20060;-74
2022/07/05 04:26:16;;;;;;;6.95;5.03;;;;;;;;;;5030095;28;20051;-74
2022/07/05 04:28:41;;;;;;;7.80;5.53;;;;;;;;;;5026520;28;20032;-73
2022/07/05 04:31:07;;;;;;;7.40;5.15;;;;;;;;;;5027036;28;20793;-73
2022/07/05 04:33:33;;;;;;;6.30;4.80;;;;;;;;;;5023442;28;20100;-74
2022/07/05 04:35:58;;;;;;;7.50;5.20;;;;;;;;;;5029013;28;20110;-74
2022/07/05 04:38:23;;;;;;;7.63;5.10;;;;;;;;;;5025363;28;20103;-73
2022/07/05 04:40:49;;;;;;;6.90;4.85;;;;;;;;;;5029378;28;20043;-73
2022/07/05 04:43:14;;;;;;;7.15;5.18;;;;;;;;;;5026442;28;20046;-74
2022/07/05 04:45:40;;;;;;;8.23;5.32;;;;;;;;;;5029765;28;20409;-73
2022/07/05 04:48:05;;;;;;;7.93;5.72;;;;;;;;;;5024646;28;20074;-73
2022/07/05 04:50:30;;;;;;;8.27;5.32;;;;;;;;;;5027736;28;20049;-73
2022/07/05 04:52:56;;;;;;;6.65;5.13;;;;;;;;;;5032263;28;20033;-73
2022/07/05 04:55:21;;;;;;;7.47;5.30;;;;;;;;;;5028615;28;20025;-74
2022/07/05 04:57:46;;;;;;;8.38;5.22;;;;;;;;;;5027339;28;20037;-73
2022/07/05 05:00:14;;;;;;;6.85;5.28;;;;;;;;;;5022096;28;20025;-74
2022/07/05 05:02:39;;;;;;;8.82;4.90;;;;;;;;;;5027748;28;20124;-75
2022/07/05 05:05:06;;;;;;;7.35;5.18;;;;;;;;;;5027710;28;20463;-74
2022/07/05 05:07:31;;;;;;;7.60;4.88;;;;;;;;;;5024736;28;20444;-74
2022/07/05 05:09:56;;;;;;;7.80;5.28;;;;;;;;;;5023109;28;20029;-74
2022/07/05 05:12:22;;;;;;;6.40;4.85;;;;;;;;;;5025096;28;20033;-73
2022/07/05 05:14:48;;;;;;;6.47;4.82;;;;;;;;;;5018500;28;20021;-74
2022/07/05 05:17:14;;;;;;;6.60;5.00;;;;;;;;;;5025576;28;20554;-74
2022/07/05 05:19:39;;;;;;;8.23;5.50;;;;;;;;;;5025921;28;20033;-73
2022/07/05 05:22:05;;;;;;;7.95;5.40;;;;;;;;;;5021684;28;20176;-74
2022/07/05 05:24:30;;;;;;;6.32;4.47;;;;;;;;;;5031241;28;20030;-74
2022/07/05 05:26:55;;;;;;;6.25;4.88;;;;;;;;;;5031891;28;20138;-74
2022/07/05 05:29:21;;;;;;;7.25;4.93;;;;;;;;;;5029359;28;20050;-74
2022/07/05 05:31:47;;;;;;;6.82;5.13;;;;;;;;;;5024876;28;20108;-73
2022/07/05 05:34:12;;;;;;;7.90;4.82;;;;;;;;;;5024771;28;20047;-74
2022/07/05 05:36:38;;;;;;;6.38;4.95;;;;;;;;;;5020048;28;20034;-74
2022/07/05 05:39:04;;;;;;;6.95;4.40;;;;;;;;;;5021694;28;20116;-73
2022/07/05 05:41:29;;;;;;;7.50;5.05;;;;;;;;;;5030431;28;20033;-73
2022/07/05 05:43:54;;;;;;;6.22;3.88;;;;;;;;;;5021349;28;20037;-74
2022/07/05 05:46:20;;;;;;;5.85;4.18;;;;;;;;;;5021799;28;20401;-73
2022/07/05 05:48:45;;;;;;;10.52;4.70;;;;;;;;;;5027597;28;20025;-73
2022/07/05 05:51:10;;;;;;;6.57;4.82;;;;;;;;;;5025694;28;20402;-73
2022/07/05 05:53:36;;;;;;;6.82;5.15;;;;;;;;;;5024435;28;20022;-73
2022/07/05 05:56:01;;;;;;;6.65;4.80;;;;;;;;;;5020813;28;20029;-74
2022/07/05 05:58:26;;;;;;;7.75;4.70;;;;;;;;;;5021803;28;20029;-73
2022/07/05 06:00:53;;;;;;;5.80;3.97;;;;;;;;;;5021871;28;20472;-73
2022/07/05 06:03:20;;;;;;;5.90;4.68;;;;;;;;;;5023099;28;20031;-75
2022/07/05 06:05:45;;;;;;;8.55;4.63;;;;;;;;;;5031565;28;20531;-74
2022/07/05 06:08:11;;;;;;;6.10;4.25;;;;;;;;;;5030603;28;20038;-73
2022/07/05 06:10:37;;;;;;;8.27;4.88;;;;;;;;;;5022387;28;20104;-73
2022/07/05 06:13:04;;;;;;;5.75;4.60;;;;;;;;;;5028986;28;20036;-74
2022/07/05 06:15:30;;;;;;;8.10;5.07;;;;;;;;;;5031399;28;20501;-73
2022/07/05 06:17:56;;;;;;;6.63;5.00;;;;;;;;;;5033363;28;20031;-73
2022/07/05 06:20:24;;;;;;;8.20;5.47;;;;;;;;;;5026865;28;20108;-73
2022/07/05 06:22:50;;;;;;;7.70;4.70;;;;;;;;;;5031673;28;20021;-73
2022/07/05 06:25:16;;;;;;;5.78;4.30;;;;;;;;;;5030736;28;20071;-73
2022/07/05 06:27:42;;;;;;;6.72;5.28;;;;;;;;;;5032370;28;20029;-72
2022/07/05 06:30:09;;;;;;;6.78;4.50;;;;;;;;;;5025037;28;20049;-74
2022/07/05 06:32:34;;;;;;;7.07;4.82;;;;;;;;;;5021633;28;20030;-73
2022/07/05 06:34:59;;;;;;;6.80;4.70;;;;;;;;;;5023036;28;20079;-73
2022/07/05 06:37:25;;;;;;;6.72;4.43;;;;;;;;;;5022806;28;20500;-74
2022/07/05 06:39:50;;;;;;;8.05;5.28;;;;;;;;;;5019113;28;20080;-74
2022/07/05 06:42:16;;;;;;;6.60;4.80;;;;;;;;;;5022141;28;20565;-74
2022/07/05 06:44:42;;;;;;;8.55;4.78;;;;;;;;;;5020061;28;20053;-73
2022/07/05 06:47:07;;;;;;;5.32;4.00;;;;;;;;;;5025280;28;20040;-73
2022/07/05 06:49:33;;;;;;;6.35;5.40;;;;;;;;;;5025060;28;20497;-73
2022/07/05 06:51:58;;;;;;;6.68;5.55;;;;;;;;;;5025904;28;20068;-74
2022/07/05 06:54:23;;;;;;;6.80;4.97;;;;;;;;;;5028107;28;20036;-74
2022/07/05 06:56:49;;;;;;;7.35;4.80;;;;;;;;;;5026858;28;20025;-73
2022/07/05 06:59:14;;;;;;;6.50;4.72;;;;;;;;;;5026450;28;20485;-72
2022/07/05 07:01:40;;;;;;;7.03;4.18;;;;;;;;;;5021235;28;20026;-73
2022/07/05 07:04:05;;;;;;;7.15;4.25;;;;;;;;;;5025128;28;20029;-73
2022/07/05 07:06:30;;;;;;;6.63;4.97;;;;;;;;;;5027385;28;20052;-73
2022/07/05 07:11:40;;;;;;;6.93;4.93;;;;;;;;;;5023404;28;20048;-73
2022/07/05 07:14:05;;;;;;;5.82;4.38;;;;;;;;;;5023070;28;20029;-73
2022/07/05 07:16:30;;;;;;;7.50;5.18;;;;;;;;;;5025128;28;20500;-73
2022/07/05 07:18:56;;;;;;;7.40;5.18;;;;;;;;;;5020252;28;20021;-73
2022/07/05 07:21:22;;;;;;;9.90;5.85;;;;;;;;;;5023199;28;20116;-74
2022/07/05 07:23:47;;;;;;;7.05;5.10;;;;;;;;;;5025192;28;20405;-73
2022/07/05 07:26:13;;;;;;;7.03;5.13;;;;;;;;;;5023806;28;20505;-74
2022/07/05 07:28:40;;;;;;;6.72;4.53;;;;;;;;;;5023569;28;20151;-74
2022/07/05 07:31:05;;;;;;;8.57;5.10;;;;;;;;;;5023198;28;20108;-74
2022/07/05 07:33:31;;;;;;;7.15;4.90;;;;;;;;;;5021585;28;20251;-73
2022/07/05 07:35:57;;;;;;;6.72;4.70;;;;;;;;;;5022392;28;20481;-73
2022/07/05 07:38:24;;;;;;;5.60;4.15;;;;;;;;;;5025486;28;20033;-74
2022/07/05 07:40:50;;;;;;;6.07;4.05;;;;;;;;;;5018182;28;20037;-74
2022/07/05 07:43:15;;;;;;;7.75;4.85;;;;;;;;;;5026633;28;20029;-74
2022/07/05 07:45:40;;;;;;;6.97;4.25;;;;;;;;;;5023244;28;20788;-73
2022/07/05 07:48:06;;;;;;;6.03;4.40;;;;;;;;;;5021493;28;20661;-74
2022/07/05 07:50:31;;;;;;;6.10;3.80;;;;;;;;;;5022849;28;20098;-74
2022/07/05 07:52:56;;;;;;;7.18;5.05;;;;;;;;;;5021881;28;20032;-74
2022/07/05 07:55:22;;;;;;;6.63;4.43;;;;;;;;;;5018741;28;20029;-74
2022/07/05 07:57:47;;;;;;;6.75;4.60;;;;;;;;;;5021992;28;20056;-74
2022/07/05 08:00:13;;;;;;;7.18;4.63;;;;;;;;;;5024569;28;20025;-73
2022/07/05 08:02:38;;;;;;;6.85;4.22;;;;;;;;;;5020791;28;20032;-73
2022/07/05 08:05:04;;;;;;;5.45;4.03;;;;;;;;;;5025694;28;20068;-74
2022/07/05 08:07:30;;;;;;;7.78;4.18;;;;;;;;;;5018164;28;20440;-74
2022/07/05 08:09:55;;;;;;;8.57;4.43;;;;;;;;;;5021456;28;20030;-74
2022/07/05 08:12:21;;;;;;;9.15;3.92;;;;;;;;;;5022387;28;20030;-73
2022/07/05 08:14:46;;;;;;;10.55;3.60;;;;;;;;;;5019990;28;20026;-74
2022/07/05 08:17:12;;;;;;;5.65;4.00;;;;;;;;;;5021749;28;20108;-74
2022/07/05 08:22:23;;;;;;;5.88;3.90;;;;;;;;;;5019269;28;20141;-74
2022/07/05 08:24:49;;;;;;;6.80;4.18;;;;;;;;;;5029250;28;20056;-74
2022/07/05 08:27:14;;;;;;;5.63;4.47;;;;;;;;;;5027082;28;20076;-73
2022/07/05 08:29:40;;;;;;;8.43;4.10;;;;;;;;;;5027782;28;20073;-73
2022/07/05 08:32:06;;;;;;;6.07;4.10;;;;;;;;;;5024206;28;20029;-73
2022/07/05 08:34:33;;;;;;;7.10;3.85;;;;;;;;;;5019643;28;20033;-74
2022/07/05 08:36:59;;;;;;;6.00;4.10;;;;;;;;;;5021224;28;20089;-74
2022/07/05 08:39:25;;;;;;;7.13;4.13;;;;;;;;;;5026887;28;20111;-74
2022/07/05 08:41:51;;;;;;;6.97;4.30;;;;;;;;;;5028331;28;20032;-74
2022/07/05 08:44:21;;;;;;;7.18;3.95;;;;;;;;;;5026699;28;20035;-74
2022/07/05 08:46:47;;;;;;;8.65;3.78;;;;;;;;;;5024764;28;20057;-74
2022/07/05 08:49:14;;;;;;;6.53;3.30;;;;;;;;;;5025240;28;20025;-74
2022/07/05 08:51:41;;;;;;;5.85;3.20;;;;;;;;;;5024556;28;20037;-73
2022/07/05 08:54:11;;;;;;;5.95;3.58;;;;;;;;;;5027689;28;20501;-73
2022/07/05 08:56:37;;;;;;;6.85;3.10;;;;;;;;;;5027146;28;20024;-72
2022/07/05 08:59:03;;;;;;;5.35;2.83;;;;;;;;;;5030107;28;20459;-73
2022/07/05 09:01:31;;;;;;;4.70;3.00;;;;;;;;;;5025138;28;20029;-73
2022/07/05 09:04:01;;;;;;;5.88;3.38;;;;;;;;;;5026296;28;20040;-72
2022/07/05 09:06:28;;;;;;;7.45;3.50;;;;;;;;;;5025164;28;20026;-73
2022/07/05 09:08:58;;;;;;;6.22;3.40;;;;;;;;;;5027432;28;20090;-73
2022/07/05 09:11:39;;;;;;;7.03;4.10;;;;;;;;;;5025328;28;20386;-73
2022/07/05 09:14:06;;;;;;;6.75;3.92;;;;;;;;;;5022846;28;20207;-73
2022/07/05 09:16:32;;;;;;;7.00;4.28;;;;;;;;;;5027924;28;20378;-73
2022/07/05 09:19:06;;;;;;;8.55;4.03;;;;;;;;;;5026780;28;20029;-73
2022/07/05 09:21:31;;;;;;;7.32;4.57;;;;;;;;;;5017448;28;20103;-73
2022/07/05 09:24:02;;;;;;;7.72;4.60;;;;;;;;;;5022576;28;20029;-73
2022/07/05 09:26:36;;;;;;;7.70;4.40;;;;;;;;;;5018321;28;20139;-72
2022/07/05 09:29:04;;;;;;;8.20;4.40;;;;;;;;;;5014657;28;20145;-73
2022/07/05 09:31:31;;;;;;;4.85;3.28;;;;;;;;;;5011323;28;20029;-73
2022/07/05 09:34:09;;;;;;;7.30;4.50;;;;;;;;;;5018719;28;20103;-72
2022/07/05 09:36:48;;;;;;;6.85;4.00;;;;;;;;;;5019009;28;20053;-73
2022/07/05 09:39:13;;;;;;;4.70;3.05;;;;;;;;;;5024226;28;20401;-72
2022/07/05 09:41:39;;;;;;;5.40;3.10;;;;;;;;;;5019615;28;20021;-72
2022/07/05 09:44:05;;;;;;;8.88;4.00;;;;;;;;;;5018207;28;20034;-74
2022/07/05 09:46:31;;;;;;;6.95;4.00;;;;;;;;;;5014083;28;20139;-77
2022/07/05 09:48:57;;;;;;;6.60;4.13;;;;;;;;;;5013481;28;20129;-78
2022/07/05 09:51:22;;;;;;;7.35;4.57;;;;;;;;;;5020814;28;20380;-74
2022/07/05 09:53:50;;;;;;;9.95;3.40;;;;;;;;;;5016099;28;20037;-75
2022/07/05 09:56:17;;;;;;;5.15;2.80;;;;;;;;;;5018128;28;20121;-76
2022/07/05 09:58:42;;;;;;;4.95;3.00;;;;;;;;;;5014650;28;20033;-73
2022/07/05 10:01:28;;;;;;;5.45;3.20;;;;;;;;;;5020013;28;20487;-76
2022/07/05 10:03:54;;;;;;;5.68;3.13;;;;;;;;;;5012588;28;20029;-73
2022/07/05 10:06:22;;;;;;;5.50;2.80;;;;;;;;;;5019893;28;20053;-77
2022/07/05 10:08:49;;;;;;;4.68;2.97;;;;;;;;;;5021713;28;20291;-74
2022/07/05 10:11:16;;;;;;;7.65;3.50;;;;;;;;;;5022597;28;20107;-74
2022/07/05 10:13:44;;;;;;;6.50;3.38;;;;;;;;;;5021556;28;20482;-76
2022/07/05 10:16:10;;;;;;;6.90;3.63;;;;;;;;;;5016880;28;20139;-74
2022/07/05 10:18:35;;;;;;;6.45;4.30;;;;;;;;;;5015506;28;20721;-74
2022/07/05 10:21:02;;;;;;;5.05;4.03;;;;;;;;;;5023028;28;20029;-75
2022/07/05 10:23:28;;;;;;;5.90;4.18;;;;;;;;;;5023145;28;20033;-74
2022/07/05 10:25:54;;;;;;;6.28;3.95;;;;;;;;;;5018824;28;20033;-75
2022/07/05 10:28:21;;;;;;;5.88;4.00;;;;;;;;;;5014753;28;20107;-76
2022/07/05 10:30:51;;;;;;;7.28;4.57;;;;;;;;;;5020050;28;20076;-74
2022/07/05 10:33:25;;;;;;;5.30;4.03;;;;;;;;;;5020376;28;20061;-75
2022/07/05 10:35:50;;;;;;;5.90;3.97;;;;;;;;;;5015289;28;20033;-75
2022/07/05 10:38:16;;;;;;;5.90;4.03;;;;;;;;;;5019629;28;20083;-76
2022/07/05 10:40:45;;;;;;;5.60;3.67;;;;;;;;;;5017541;28;20057;-74
2022/07/05 10:43:12;;;;;;;6.75;4.68;;;;;;;;;;5018151;28;20033;-74
2022/07/05 10:45:56;;;;;;;5.93;3.30;;;;;;;;;;5013916;28;20048;-76
2022/07/05 10:48:23;;;;;;;6.75;4.20;;;;;;;;;;5014153;28;20080;-75
2022/07/05 10:51:14;;;;;;;7.28;3.70;;;;;;;;;;5017481;28;20087;-74
2022/07/05 10:53:39;;;;;;;4.40;3.65;;;;;;;;;;5017392;28;20125;-75
2022/07/05 10:56:05;;;;;;;7.82;4.00;;;;;;;;;;5015457;28;20025;-75
2022/07/05 10:58:43;;;;;;;6.10;3.83;;;;;;;;;;5005755;28;20041;-75
2022/07/05 11:01:12;;;;;;;5.68;3.25;;;;;;;;;;5017435;28;20036;-74
2022/07/05 11:03:46;;;;;;;3.20;2.40;;;;;;;;;;5018187;28;20021;-75
2022/07/05 11:06:28;;;;;;;5.30;3.20;;;;;;;;;;5022007;28;20079;-74
2022/07/05 11:08:59;;;;;;;5.72;3.03;;;;;;;;;;5019797;28;20037;-78
2022/07/05 11:11:34;;;;;;;4.63;3.20;;;;;;;;;;5016426;28;20029;-75
2022/07/05 11:14:01;;;;;;;4.50;3.30;;;;;;;;;;5015652;28;20144;-78
2022/07/05 11:16:36;;;;;;;4.05;2.60;;;;;;;;;;5025171;28;20060;-77
2022/07/05 11:19:10;;;;;;;4.45;2.30;;;;;;;;;;5017648;28;20072;-75
2022/07/05 11:21:57;;;;;;;3.08;2.20;;;;;;;;;;5022148;28;20087;-72
2022/07/05 11:24:26;;;;;;;4.18;2.97;;;;;;;;;;5014881;28;20600;-75
2022/07/05 11:26:56;;;;;;;4.65;3.20;;;;;;;;;;5015234;28;20405;-72
2022/07/05 11:29:44;;;;;;;6.35;2.90;;;;;;;;;;5016951;28;20037;-74
2022/07/05 11:32:13;;;;;;;6.03;2.47;;;;;;;;;;5021519;28;20639;-74
2022/07/05 11:34:39;;;;;;;2.53;1.90;;;;;;;;;;5025678;28;20029;-75
2022/07/05 11:37:14;;;;;;;4.10;2.70;;;;;;;;;;5021206;28;20026;-72
2022/07/05 11:39:43;;;;;;;3.88;2.05;;;;;;;;;;5024161;28;20543;-75
2022/07/05 11:42:09;;;;;;;4.25;2.10;;;;;;;;;;5035951;28;20757;-78
2022/07/05 11:44:36;;;;;;;5.00;3.17;;;;;;;;;;5028523;28;20079;-75
2022/07/05 11:47:03;;;;;;;6.68;2.97;;;;;;;;;;5026055;28;20045;-75
2022/07/05 11:49:28;;;;;;;3.30;2.03;;;;;;;;;;5021159;28;20354;-75
2022/07/05 11:52:02;;;;;;;5.32;2.50;;;;;;;;;;5031258;28;20025;-74
2022/07/05 11:54:33;;;;;;;3.13;2.03;;;;;;;;;;5042955;28;20037;-75
2022/07/05 11:56:59;;;;;;;3.00;1.95;;;;;;;;;;5026799;28;20041;-75
2022/07/05 11:59:25;;;;;;;3.65;2.17;;;;;;;;;;5025956;28;20508;-75
2022/07/05 12:01:52;;;;;;;3.65;2.20;;;;;;;;;;5024334;28;20033;-75
2022/07/05 12:04:28;;;;;;;4.70;2.75;;;;;;;;;;5026135;28;20397;-75
2022/07/05 12:06:55;;;;;;;4.28;2.88;;;;;;;;;;5024409;28;20033;-79
2022/07/05 12:15:11;;;;;;;5.95;2.42;;;;;;;;;;5022963;28;20117;-73
2022/07/05 12:17:38;;;;;;;4.13;2.30;;;;;;;;;;5020694;28;20037;-72
2022/07/05 12:20:06;;;;;;;3.50;2.25;;;;;;;;;;5025320;28;20068;-76
2022/07/05 12:22:33;;;;;;;4.78;2.10;;;;;;;;;;5022482;28;20048;-75
2022/07/05 12:25:00;;;;;;;3.78;2.20;;;;;;;;;;5021243;28;20091;-74
2022/07/05 12:27:27;;;;;;;3.38;2.45;;;;;;;;;;5027192;28;20091;-74
2022/07/05 12:29:53;;;;;;;3.58;2.90;;;;;;;;;;5027475;28;20045;-75
2022/07/05 12:32:18;;;;;;;5.78;2.67;;;;;;;;;;5024734;28;20116;-72
2022/07/05 12:34:44;;;;;;;5.38;2.40;;;;;;;;;;5025481;28;20458;-72
2022/07/05 12:37:09;;;;;;;3.88;2.20;;;;;;;;;;5025126;28;20040;-76
2022/07/05 12:39:35;;;;;;;3.83;1.80;;;;;;;;;;5027370;28;20064;-74
2022/07/05 12:42:00;;;;;;;3.80;2.40;;;;;;;;;;5025105;28;20025;-76
2022/07/05 12:44:26;;;;;;;2.78;1.63;;;;;;;;;;5026721;28;20091;-76
2022/07/05 12:46:52;;;;;;;2.95;1.60;;;;;;;;;;5029413;28;20125;-73
2022/07/05 12:49:18;;;;;;;5.03;1.70;;;;;;;;;;5018966;28;21000;-72
2022/07/05 12:51:45;;;;;;;3.03;1.50;;;;;;;;;;5031498;28;20380;-75
2022/07/05 12:59:58;;;;;;;5.65;1.90;;;;;;;;;;5022440;28;20110;-74
2022/07/05 13:02:33;;;;;;;;;;;;;;;;;;5026782;28;20018;-77
2022/07/05 13:04:59;;;;;;;4.18;1.20;;;;;;;;;;5028907;28;19971;-75
2022/07/05 13:07:26;;;;;;;1.75;1.23;;;;;;;;;;5024816;28;20056;-74
2022/07/05 13:09:52;;;;;;;2.47;1.20;;;;;;;;;;5025066;28;20078;-76
2022/07/05 13:12:21;;;;;;;2.25;1.20;;;;;;;;;;5028267;28;20431;-71
2022/07/05 13:14:48;;;;;;;3.15;1.40;;;;;;;;;;5021757;28;20561;-76
2022/07/05 13:17:16;;;;;;;2.35;1.17;;;;;;;;;;5021848;28;20022;-73
2022/07/05 13:19:43;;;;;;;3.58;1.48;;;;;;;;;;5027141;28;20034;-76
2022/07/05 13:22:09;;;;;;;3.40;1.38;;;;;;;;;;5021840;28;20470;-74
2022/07/05 13:24:34;;;;;;;4.25;1.40;;;;;;;;;;5024045;28;20064;-75
2022/07/05 13:27:00;;;;;;;3.05;1.27;;;;;;;;;;5024508;28;20489;-72
2022/07/05 13:29:26;;;;;;;2.58;1.20;;;;;;;;;;5025538;28;20053;-74
2022/07/05 13:31:51;;;;;;;3.08;1.38;;;;;;;;;;5023157;28;20042;-74
2022/07/05 13:34:17;;;;;;;4.70;1.65;;;;;;;;;;5025719;28;20540;-76
2022/07/05 13:36:42;;;;;;;2.65;1.50;;;;;;;;;;5027013;28;20025;-74
2022/07/05 13:39:08;;;;;;;3.17;1.48;;;;;;;;;;5017437;28;20033;-76
2022/07/05 13:41:33;;;;;;;2.75;1.40;;;;;;;;;;5021443;28;20129;-76
2022/07/05 13:43:59;;;;;;;2.55;1.25;;;;;;;;;;5016109;28;20029;-75
2022/07/05 13:46:25;;;;;;;2.97;1.40;;;;;;;;;;5019555;28;20029;-76
2022/07/05 13:48:50;;;;;;;2.47;1.40;;;;;;;;;;5017103;28;20072;-74
2022/07/05 13:51:16;;;;;;;1.85;1.25;;;;;;;;;;5024213;28;20486;-76
2022/07/05 13:53:41;;;;;;;2.78;1.38;;;;;;;;;;5019262;28;20041;-76
2022/07/05 13:56:07;;;;;;;2.13;1.20;;;;;;;;;;5021148;28;20037;-77
2022/07/05 13:58:34;;;;;;;1.92;1.20;;;;;;;;;;5022147;28;20037;-74
2022/07/05 14:01:00;;;;;;;2.50;1.35;;;;;;;;;;5022715;28;20039;-74
2022/07/05 14:03:26;;;;;;;1.35;0.90;;;;;;;;;;5023533;28;20025;-73
2022/07/05 14:05:51;;;;;;;1.63;1.02;;;;;;;;;;5020691;28;20033;-76
2022/07/05 14:08:21;;;;;;;1.60;0.90;;;;;;;;;;5025621;28;20119;-75
2022/07/05 14:10:51;;;;;;;2.20;0.82;;;;;;;;;;5018483;28;20029;-71
2022/07/05 14:13:18;;;;;;;2.75;0.90;;;;;;;;;;5021180;28;20053;-76
2022/07/05 14:15:45;;;;;;;5.55;1.35;;;;;;;;;;5019738;28;20731;-71
2022/07/05 14:18:11;;;;;;;2.42;1.00;;;;;;;;;;5021927;28;20033;-77
2022/07/05 14:20:36;;;;;;;3.60;0.85;;;;;;;;;;5027268;28;20037;-76
2022/07/05 14:23:02;;;;;;;1.35;0.75;;;;;;;;;;5021900;28;20092;-76
2022/07/05 14:25:27;;;;;;;2.10;1.00;;;;;;;;;;5023504;28;20390;-72
2022/07/05 14:27:52;;;;;;;3.42;0.85;;;;;;;;;;5022909;28;20045;-72
2022/07/05 14:30:18;;;;;;;2.85;0.90;;;;;;;;;;5021831;28;20049;-76
2022/07/05 14:32:43;;;;;;;1.77;0.90;;;;;;;;;;5025104;28;20025;-73
2022/07/05 14:35:09;;;;;;;1.40;0.77;;;;;;;;;;5028617;28;20025;-76
2022/07/05 14:37:34;;;;;;;1.30;1.00;;;;;;;;;;5025946;28;20067;-72
2022/07/05 14:40:00;;;;;;;1.92;1.25;;;;;;;;;;5020282;28;20031;-73
2022/07/05 14:42:25;;;;;;;2.35;1.02;;;;;;;;;;5020074;28;20017;-74
2022/07/05 14:44:51;;;;;;;2.03;0.90;;;;;;;;;;5016540;28;20033;-76
2022/07/05 14:47:16;;;;;;;3.10;1.17;;;;;;;;;;5014800;28;20156;-73
2022/07/05 14:49:41;;;;;;;2.33;1.05;;;;;;;;;;5014581;28;20040;-77
2022/07/05 14:52:07;;;;;;;2.38;0.88;;;;;;;;;;5019114;28;20049;-72
2022/07/05 14:54:32;;;;;;;1.35;0.80;;;;;;;;;;5021466;28;20037;-74
2022/07/05 14:56:57;;;;;;;2.40;1.20;;;;;;;;;;5018174;28;20029;-71